sensor_id;sensor_type;location;lat;lon;timestamp;temperature;humidity
39189;DHT22;24915;50.858;4.376;2023-04-01T00:00:16;9.70;99.90
39189;DHT22;24915;50.858;4.376;2023-04-01T00:02:42;9.70;99.90
39189;DHT22;24915;50.858;4.376;2023-04-01T00:05:09;9.60;99.90
39189;DHT22;24915;50.858;4.376;2023-04-01T00:07:36;9.60;99.90
39189;DHT22;24915;50.858;4.376;2023-04-01T00:10:04;9.60;99.90
39189;DHT22;24915;50.858;4.376;2023-04-01T00:12:30;9.60;99.90
39189;DHT22;24915;50.858;4.376;2023-04-01T00:14:55;9.60;99.90
39189;DHT22;24915;50.858;4.376;2023-04-01T00:17:21;9.70;99.90
39189;DHT22;24915;50.858;4.376;2023-04-01T00:19:47;9.70;99.90
39189;DHT22;24915;50.858;4.376;2023-04-01T00:22:13;9.60;99.90
39189;DHT22;24915;50.858;4.376;2023-04-01T00:24:39;9.60;99.90
39189;DHT22;24915;50.858;4.376;2023-04-01T00:27:05;9.60;99.90
39189;DHT22;24915;50.858;4.376;2023-04-01T00:29:31;9.70;99.90
39189;DHT22;24915;50.858;4.376;2023-04-01T00:31:57;9.70;99.90
39189;DHT22;24915;50.858;4.376;2023-04-01T00:34:23;9.60;99.90
39189;DHT22;24915;50.858;4.376;2023-04-01T00:36:49;9.60;99.90
39189;DHT22;24915;50.858;4.376;2023-04-01T00:39:16;9.70;99.90
39189;DHT22;24915;50.858;4.376;2023-04-01T00:41:41;9.70;99.90
39189;DHT22;24915;50.858;4.376;2023-04-01T00:44:24;9.60;99.90
39189;DHT22;24915;50.858;4.376;2023-04-01T00:46:50;9.70;99.90
39189;DHT22;24915;50.858;4.376;2023-04-01T00:49:20;9.70;99.90
39189;DHT22;24915;50.858;4.376;2023-04-01T00:51:50;9.70;99.90
39189;DHT22;24915;50.858;4.376;2023-04-01T00:54:19;9.70;99.90
39189;DHT22;24915;50.858;4.376;2023-04-01T00:56:49;9.70;99.90
39189;DHT22;24915;50.858;4.376;2023-04-01T00:59:22;9.70;99.90
39189;DHT22;24915;50.858;4.376;2023-04-01T01:01:50;9.70;99.90
39189;DHT22;24915;50.858;4.376;2023-04-01T01:04:27;9.80;99.90
39189;DHT22;24915;50.858;4.376;2023-04-01T01:07:22;9.80;99.90
39189;DHT22;24915;50.858;4.376;2023-04-01T01:10:13;9.80;99.90
39189;DHT22;24915;50.858;4.376;2023-04-01T01:16:09;9.70;99.90
39189;DHT22;24915;50.858;4.376;2023-04-01T01:18:39;9.80;99.90
39189;DHT22;24915;50.858;4.376;2023-04-01T01:27:15;9.80;99.90
39189;DHT22;24915;50.858;4.376;2023-04-01T01:32:24;9.80;99.90
39189;DHT22;24915;50.858;4.376;2023-04-01T01:37:51;9.80;99.90
39189;DHT22;24915;50.858;4.376;2023-04-01T01:40:20;9.80;99.90
39189;DHT22;24915;50.858;4.376;2023-04-01T01:42:50;9.80;99.90
39189;DHT22;24915;50.858;4.376;2023-04-01T01:45:19;9.80;99.90
39189;DHT22;24915;50.858;4.376;2023-04-01T01:47:46;9.80;99.90
39189;DHT22;24915;50.858;4.376;2023-04-01T01:50:14;9.80;99.90
39189;DHT22;24915;50.858;4.376;2023-04-01T01:52:40;9.80;99.90
39189;DHT22;24915;50.858;4.376;2023-04-01T01:55:25;9.80;99.90
39189;DHT22;24915;50.858;4.376;2023-04-01T01:57:51;9.80;99.90
39189;DHT22;24915;50.858;4.376;2023-04-01T02:00:18;9.80;99.90
39189;DHT22;24915;50.858;4.376;2023-04-01T02:02:46;9.80;99.90
39189;DHT22;24915;50.858;4.376;2023-04-01T02:05:20;9.80;99.90
39189;DHT22;24915;50.858;4.376;2023-04-01T02:07:51;9.80;99.90
39189;DHT22;24915;50.858;4.376;2023-04-01T02:10:21;9.90;99.90
39189;DHT22;24915;50.858;4.376;2023-04-01T02:12:48;9.80;99.90
39189;DHT22;24915;50.858;4.376;2023-04-01T02:15:15;9.80;99.90
39189;DHT22;24915;50.858;4.376;2023-04-01T02:17:46;9.80;99.90
39189;DHT22;24915;50.858;4.376;2023-04-01T02:20:16;9.80;99.90
39189;DHT22;24915;50.858;4.376;2023-04-01T02:22:51;9.80;99.90
39189;DHT22;24915;50.858;4.376;2023-04-01T02:25:22;9.80;99.90
39189;DHT22;24915;50.858;4.376;2023-04-01T02:27:49;9.80;99.90
39189;DHT22;24915;50.858;4.376;2023-04-01T02:30:16;9.70;99.90
39189;DHT22;24915;50.858;4.376;2023-04-01T02:32:43;9.80;99.90
39189;DHT22;24915;50.858;4.376;2023-04-01T02:35:10;9.70;99.90
39189;DHT22;24915;50.858;4.376;2023-04-01T02:37:38;9.70;99.90
39189;DHT22;24915;50.858;4.376;2023-04-01T02:40:08;9.70;99.90
39189;DHT22;24915;50.858;4.376;2023-04-01T02:42:35;9.70;99.90
39189;DHT22;24915;50.858;4.376;2023-04-01T02:45:01;9.70;99.90
39189;DHT22;24915;50.858;4.376;2023-04-01T02:47:26;9.70;99.90
39189;DHT22;24915;50.858;4.376;2023-04-01T02:49:52;9.70;99.90
39189;DHT22;24915;50.858;4.376;2023-04-01T02:52:25;9.70;99.90
39189;DHT22;24915;50.858;4.376;2023-04-01T02:54:50;9.70;99.90
39189;DHT22;24915;50.858;4.376;2023-04-01T02:57:16;9.70;99.90
39189;DHT22;24915;50.858;4.376;2023-04-01T02:59:42;9.70;99.90
39189;DHT22;24915;50.858;4.376;2023-04-01T03:02:07;9.60;99.90
39189;DHT22;24915;50.858;4.376;2023-04-01T03:04:33;9.70;99.90
39189;DHT22;24915;50.858;4.376;2023-04-01T03:06:59;9.70;99.90
39189;DHT22;24915;50.858;4.376;2023-04-01T03:09:24;9.70;99.90
39189;DHT22;24915;50.858;4.376;2023-04-01T03:11:50;9.70;99.90
39189;DHT22;24915;50.858;4.376;2023-04-01T03:14:16;9.70;99.90
39189;DHT22;24915;50.858;4.376;2023-04-01T03:16:41;9.70;99.90
39189;DHT22;24915;50.858;4.376;2023-04-01T03:19:08;9.70;99.90
39189;DHT22;24915;50.858;4.376;2023-04-01T03:21:34;9.70;99.90
39189;DHT22;24915;50.858;4.376;2023-04-01T03:23:59;9.70;99.90
39189;DHT22;24915;50.858;4.376;2023-04-01T03:26:25;9.70;99.90
39189;DHT22;24915;50.858;4.376;2023-04-01T03:28:52;9.70;99.90
39189;DHT22;24915;50.858;4.376;2023-04-01T03:31:18;9.70;99.90
39189;DHT22;24915;50.858;4.376;2023-04-01T03:33:44;9.70;99.90
39189;DHT22;24915;50.858;4.376;2023-04-01T03:36:10;9.70;99.90
39189;DHT22;24915;50.858;4.376;2023-04-01T03:38:38;9.70;99.90
39189;DHT22;24915;50.858;4.376;2023-04-01T03:41:04;9.70;99.90
39189;DHT22;24915;50.858;4.376;2023-04-01T03:43:30;9.70;99.90
39189;DHT22;24915;50.858;4.376;2023-04-01T03:45:56;9.80;99.90
39189;DHT22;24915;50.858;4.376;2023-04-01T03:48:23;9.80;99.90
39189;DHT22;24915;50.858;4.376;2023-04-01T03:50:49;9.70;99.90
39189;DHT22;24915;50.858;4.376;2023-04-01T03:53:15;9.80;99.90
39189;DHT22;24915;50.858;4.376;2023-04-01T03:55:41;9.80;99.90
39189;DHT22;24915;50.858;4.376;2023-04-01T03:58:07;9.80;99.90
39189;DHT22;24915;50.858;4.376;2023-04-01T04:00:33;9.80;99.90
39189;DHT22;24915;50.858;4.376;2023-04-01T04:02:59;9.70;99.90
39189;DHT22;24915;50.858;4.376;2023-04-01T04:05:27;9.80;99.90
39189;DHT22;24915;50.858;4.376;2023-04-01T04:07:53;9.70;99.90
39189;DHT22;24915;50.858;4.376;2023-04-01T04:10:19;9.70;99.90
39189;DHT22;24915;50.858;4.376;2023-04-01T04:12:45;9.70;99.90
39189;DHT22;24915;50.858;4.376;2023-04-01T04:15:11;9.70;99.90
39189;DHT22;24915;50.858;4.376;2023-04-01T04:17:37;9.70;99.90
39189;DHT22;24915;50.858;4.376;2023-04-01T04:20:03;9.70;99.90
39189;DHT22;24915;50.858;4.376;2023-04-01T04:22:29;9.70;99.90
39189;DHT22;24915;50.858;4.376;2023-04-01T04:24:55;9.70;99.90
39189;DHT22;24915;50.858;4.376;2023-04-01T04:27:21;9.70;99.90
39189;DHT22;24915;50.858;4.376;2023-04-01T04:29:46;9.70;99.90
39189;DHT22;24915;50.858;4.376;2023-04-01T04:32:12;9.70;99.90
39189;DHT22;24915;50.858;4.376;2023-04-01T04:34:37;9.70;99.90
39189;DHT22;24915;50.858;4.376;2023-04-01T04:37:03;9.60;99.90
39189;DHT22;24915;50.858;4.376;2023-04-01T04:39:29;9.70;99.90
39189;DHT22;24915;50.858;4.376;2023-04-01T04:41:55;9.70;99.90
39189;DHT22;24915;50.858;4.376;2023-04-01T04:44:20;9.60;99.90
39189;DHT22;24915;50.858;4.376;2023-04-01T04:46:46;9.60;99.90
39189;DHT22;24915;50.858;4.376;2023-04-01T04:49:12;9.70;99.90
39189;DHT22;24915;50.858;4.376;2023-04-01T04:51:38;9.70;99.90
39189;DHT22;24915;50.858;4.376;2023-04-01T04:54:05;9.60;99.90
39189;DHT22;24915;50.858;4.376;2023-04-01T04:56:31;9.60;99.90
39189;DHT22;24915;50.858;4.376;2023-04-01T04:58:58;9.70;99.90
39189;DHT22;24915;50.858;4.376;2023-04-01T05:01:24;9.60;99.90
39189;DHT22;24915;50.858;4.376;2023-04-01T05:03:50;9.60;99.90
39189;DHT22;24915;50.858;4.376;2023-04-01T05:06:17;9.60;99.90
39189;DHT22;24915;50.858;4.376;2023-04-01T05:08:44;9.60;99.90
39189;DHT22;24915;50.858;4.376;2023-04-01T05:11:13;9.60;99.90
39189;DHT22;24915;50.858;4.376;2023-04-01T05:13:39;9.70;99.90
39189;DHT22;24915;50.858;4.376;2023-04-01T05:16:12;9.60;99.90
39189;DHT22;24915;50.858;4.376;2023-04-01T05:18:38;9.60;99.90
39189;DHT22;24915;50.858;4.376;2023-04-01T05:21:06;9.60;99.90
39189;DHT22;24915;50.858;4.376;2023-04-01T05:23:32;9.60;99.90
39189;DHT22;24915;50.858;4.376;2023-04-01T05:25:59;9.60;99.90
39189;DHT22;24915;50.858;4.376;2023-04-01T05:28:27;9.60;99.90
39189;DHT22;24915;50.858;4.376;2023-04-01T05:30:53;9.60;99.90
39189;DHT22;24915;50.858;4.376;2023-04-01T05:33:18;9.60;99.90
39189;DHT22;24915;50.858;4.376;2023-04-01T05:35:44;9.60;99.90
39189;DHT22;24915;50.858;4.376;2023-04-01T05:38:10;9.60;99.90
39189;DHT22;24915;50.858;4.376;2023-04-01T05:40:35;9.60;99.90
39189;DHT22;24915;50.858;4.376;2023-04-01T05:43:01;9.60;99.90
39189;DHT22;24915;50.858;4.376;2023-04-01T05:45:27;9.60;99.90
39189;DHT22;24915;50.858;4.376;2023-04-01T05:47:53;9.60;99.90
39189;DHT22;24915;50.858;4.376;2023-04-01T05:50:18;9.60;99.90
39189;DHT22;24915;50.858;4.376;2023-04-01T05:52:44;9.60;99.90
39189;DHT22;24915;50.858;4.376;2023-04-01T05:55:10;9.60;99.90
39189;DHT22;24915;50.858;4.376;2023-04-01T05:57:36;9.60;99.90
39189;DHT22;24915;50.858;4.376;2023-04-01T06:00:03;9.60;99.90
39189;DHT22;24915;50.858;4.376;2023-04-01T06:02:29;9.60;99.90
39189;DHT22;24915;50.858;4.376;2023-04-01T06:05:08;9.60;99.90
39189;DHT22;24915;50.858;4.376;2023-04-01T06:07:35;9.60;99.90
39189;DHT22;24915;50.858;4.376;2023-04-01T06:10:01;9.60;99.90
39189;DHT22;24915;50.858;4.376;2023-04-01T06:15:18;9.60;99.90
39189;DHT22;24915;50.858;4.376;2023-04-01T06:20:59;9.60;99.90
39189;DHT22;24915;50.858;4.376;2023-04-01T06:23:54;9.60;99.90
39189;DHT22;24915;50.858;4.376;2023-04-01T06:27:03;9.60;99.90
39189;DHT22;24915;50.858;4.376;2023-04-01T06:29:55;9.60;99.90
39189;DHT22;24915;50.858;4.376;2023-04-01T06:48:51;9.60;99.90
39189;DHT22;24915;50.858;4.376;2023-04-01T06:56:29;9.60;99.90
39189;DHT22;24915;50.858;4.376;2023-04-01T06:58:59;9.70;99.90
39189;DHT22;24915;50.858;4.376;2023-04-01T07:01:37;9.70;99.90
39189;DHT22;24915;50.858;4.376;2023-04-01T07:04:11;9.70;99.90
39189;DHT22;24915;50.858;4.376;2023-04-01T07:06:55;9.60;99.90
39189;DHT22;24915;50.858;4.376;2023-04-01T07:09:34;9.70;99.90
39189;DHT22;24915;50.858;4.376;2023-04-01T07:12:10;9.70;99.90
39189;DHT22;24915;50.858;4.376;2023-04-01T07:14:38;9.70;99.90
39189;DHT22;24915;50.858;4.376;2023-04-01T07:17:07;9.70;99.90
39189;DHT22;24915;50.858;4.376;2023-04-01T07:22:43;9.80;99.90
39189;DHT22;24915;50.858;4.376;2023-04-01T07:25:15;9.80;99.90
39189;DHT22;24915;50.858;4.376;2023-04-01T07:27:43;9.80;99.90
39189;DHT22;24915;50.858;4.376;2023-04-01T07:30:18;9.70;99.90
39189;DHT22;24915;50.858;4.376;2023-04-01T07:32:48;9.80;99.90
39189;DHT22;24915;50.858;4.376;2023-04-01T07:35:36;9.70;99.90
39189;DHT22;24915;50.858;4.376;2023-04-01T07:38:28;9.70;99.90
39189;DHT22;24915;50.858;4.376;2023-04-01T07:41:09;9.70;99.90
39189;DHT22;24915;50.858;4.376;2023-04-01T07:43:49;9.80;99.90
39189;DHT22;24915;50.858;4.376;2023-04-01T07:49:21;9.80;99.90
39189;DHT22;24915;50.858;4.376;2023-04-01T07:54:39;9.90;99.90
39189;DHT22;24915;50.858;4.376;2023-04-01T07:57:30;9.90;99.90
39189;DHT22;24915;50.858;4.376;2023-04-01T08:00:33;9.90;99.90
39189;DHT22;24915;50.858;4.376;2023-04-01T08:06:05;9.80;99.90
39189;DHT22;24915;50.858;4.376;2023-04-01T08:08:59;9.90;99.90
39189;DHT22;24915;50.858;4.376;2023-04-01T08:14:13;9.90;99.90
39189;DHT22;24915;50.858;4.376;2023-04-01T08:16:47;9.90;99.90
39189;DHT22;24915;50.858;4.376;2023-04-01T08:22:20;9.90;99.90
39189;DHT22;24915;50.858;4.376;2023-04-01T08:24:48;9.90;99.90
39189;DHT22;24915;50.858;4.376;2023-04-01T08:27:27;9.90;99.90
39189;DHT22;24915;50.858;4.376;2023-04-01T08:32:49;9.90;99.90
39189;DHT22;24915;50.858;4.376;2023-04-01T08:35:30;10.00;99.90
39189;DHT22;24915;50.858;4.376;2023-04-01T08:38:01;9.90;99.90
39189;DHT22;24915;50.858;4.376;2023-04-01T08:54:46;10.10;99.90
39189;DHT22;24915;50.858;4.376;2023-04-01T08:57:40;10.10;99.90
39189;DHT22;24915;50.858;4.376;2023-04-01T09:00:32;10.20;99.90
39189;DHT22;24915;50.858;4.376;2023-04-01T09:03:02;10.20;99.90
39189;DHT22;24915;50.858;4.376;2023-04-01T09:17:40;10.20;99.90
39189;DHT22;24915;50.858;4.376;2023-04-01T09:20:46;10.20;99.90
39189;DHT22;24915;50.858;4.376;2023-04-01T09:23:57;10.20;99.90
39189;DHT22;24915;50.858;4.376;2023-04-01T09:26:42;10.20;99.90
39189;DHT22;24915;50.858;4.376;2023-04-01T09:32:13;10.30;99.90
39189;DHT22;24915;50.858;4.376;2023-04-01T09:34:45;10.30;99.90
39189;DHT22;24915;50.858;4.376;2023-04-01T09:45:37;10.30;99.90
39189;DHT22;24915;50.858;4.376;2023-04-01T09:48:09;10.40;99.90
39189;DHT22;24915;50.858;4.376;2023-04-01T09:56:33;10.60;99.90
39189;DHT22;24915;50.858;4.376;2023-04-01T10:02:10;10.60;99.90
39189;DHT22;24915;50.858;4.376;2023-04-01T10:07:25;10.70;99.90
39189;DHT22;24915;50.858;4.376;2023-04-01T10:21:14;10.80;99.90
39189;DHT22;24915;50.858;4.376;2023-04-01T10:23:55;10.80;99.90
39189;DHT22;24915;50.858;4.376;2023-04-01T10:29:23;10.90;99.90
39189;DHT22;24915;50.858;4.376;2023-04-01T10:34:56;11.00;99.90
39189;DHT22;24915;50.858;4.376;2023-04-01T10:46:07;11.10;99.90
39189;DHT22;24915;50.858;4.376;2023-04-01T10:57:22;11.20;99.90
39189;DHT22;24915;50.858;4.376;2023-04-01T11:00:03;11.30;99.90
39189;DHT22;24915;50.858;4.376;2023-04-01T11:09:04;11.30;99.90
39189;DHT22;24915;50.858;4.376;2023-04-01T11:25:51;11.30;99.90
39189;DHT22;24915;50.858;4.376;2023-04-01T11:29:03;11.20;99.90
39189;DHT22;24915;50.858;4.376;2023-04-01T11:36:53;11.20;99.90
39189;DHT22;24915;50.858;4.376;2023-04-01T11:39:37;11.20;99.90
39189;DHT22;24915;50.858;4.376;2023-04-01T11:45:49;11.20;99.90
39189;DHT22;24915;50.858;4.376;2023-04-01T12:09:06;11.20;99.90
39189;DHT22;24915;50.858;4.376;2023-04-01T12:11:43;11.20;99.90
39189;DHT22;24915;50.858;4.376;2023-04-01T12:14:27;11.10;99.90
39189;DHT22;24915;50.858;4.376;2023-04-01T12:23:16;11.30;99.90
39189;DHT22;24915;50.858;4.376;2023-04-01T12:26:09;11.30;99.90
39189;DHT22;24915;50.858;4.376;2023-04-01T13:02:11;11.00;99.90
39189;DHT22;24915;50.858;4.376;2023-04-01T13:07:29;10.90;99.90
39189;DHT22;24915;50.858;4.376;2023-04-01T13:10:12;10.90;99.90
39189;DHT22;24915;50.858;4.376;2023-04-01T13:21:02;10.70;99.90
39189;DHT22;24915;50.858;4.376;2023-04-01T13:26:22;10.60;99.90
39189;DHT22;24915;50.858;4.376;2023-04-01T13:28:57;10.70;99.90
39189;DHT22;24915;50.858;4.376;2023-04-01T13:42:37;10.80;99.90
39189;DHT22;24915;50.858;4.376;2023-04-01T13:45:42;10.80;99.90
39189;DHT22;24915;50.858;4.376;2023-04-01T13:48:24;10.70;99.90
39189;DHT22;24915;50.858;4.376;2023-04-01T14:10:31;10.90;99.90
39189;DHT22;24915;50.858;4.376;2023-04-01T14:30:05;11.10;99.90
39189;DHT22;24915;50.858;4.376;2023-04-01T14:41:25;11.00;99.90
39189;DHT22;24915;50.858;4.376;2023-04-01T14:47:24;10.90;99.90
39189;DHT22;24915;50.858;4.376;2023-04-01T14:50:07;10.90;99.90
39189;DHT22;24915;50.858;4.376;2023-04-01T14:52:38;10.90;99.90
39189;DHT22;24915;50.858;4.376;2023-04-01T14:55:31;10.90;99.90
39189;DHT22;24915;50.858;4.376;2023-04-01T14:58:18;10.90;99.90
39189;DHT22;24915;50.858;4.376;2023-04-01T15:00:48;10.90;99.90
39189;DHT22;24915;50.858;4.376;2023-04-01T15:03:31;10.90;99.90
39189;DHT22;24915;50.858;4.376;2023-04-01T15:06:21;10.90;99.90
39189;DHT22;24915;50.858;4.376;2023-04-01T15:11:57;10.90;99.90
39189;DHT22;24915;50.858;4.376;2023-04-01T15:14:34;10.90;99.90
39189;DHT22;24915;50.858;4.376;2023-04-01T15:23:07;10.80;99.90
39189;DHT22;24915;50.858;4.376;2023-04-01T15:39:38;10.70;99.90
39189;DHT22;24915;50.858;4.376;2023-04-01T15:47:29;10.60;99.90
39189;DHT22;24915;50.858;4.376;2023-04-01T15:55:47;10.50;99.90
39189;DHT22;24915;50.858;4.376;2023-04-01T16:06:43;10.30;99.90
39189;DHT22;24915;50.858;4.376;2023-04-01T16:12:24;10.30;99.90
39189;DHT22;24915;50.858;4.376;2023-04-01T16:15:24;10.20;99.90
39189;DHT22;24915;50.858;4.376;2023-04-01T16:21:01;10.20;99.90
39189;DHT22;24915;50.858;4.376;2023-04-01T16:23:47;10.20;99.90
39189;DHT22;24915;50.858;4.376;2023-04-01T16:34:40;10.10;99.90
39189;DHT22;24915;50.858;4.376;2023-04-01T16:37:17;10.10;99.90
39189;DHT22;24915;50.858;4.376;2023-04-01T16:39:54;10.00;99.90
39189;DHT22;24915;50.858;4.376;2023-04-01T16:45:38;10.00;99.90
39189;DHT22;24915;50.858;4.376;2023-04-01T16:48:18;10.10;99.90
39189;DHT22;24915;50.858;4.376;2023-04-01T16:51:04;10.10;99.90
39189;DHT22;24915;50.858;4.376;2023-04-01T16:56:21;10.10;99.90
39189;DHT22;24915;50.858;4.376;2023-04-01T17:02:15;10.00;99.90
39189;DHT22;24915;50.858;4.376;2023-04-01T17:04:58;10.10;99.90
39189;DHT22;24915;50.858;4.376;2023-04-01T17:07:44;10.00;99.90
39189;DHT22;24915;50.858;4.376;2023-04-01T17:10:39;10.00;99.90
39189;DHT22;24915;50.858;4.376;2023-04-01T17:13:16;10.00;99.90
39189;DHT22;24915;50.858;4.376;2023-04-01T17:16:01;10.00;99.90
39189;DHT22;24915;50.858;4.376;2023-04-01T17:21:10;10.00;99.90
39189;DHT22;24915;50.858;4.376;2023-04-01T17:26:37;10.00;99.90
39189;DHT22;24915;50.858;4.376;2023-04-01T17:32:16;9.90;99.90
39189;DHT22;24915;50.858;4.376;2023-04-01T17:35:05;9.90;99.90
39189;DHT22;24915;50.858;4.376;2023-04-01T17:43:13;10.00;99.90
39189;DHT22;24915;50.858;4.376;2023-04-01T17:45:57;10.00;99.90
39189;DHT22;24915;50.858;4.376;2023-04-01T17:48:46;10.00;99.90
39189;DHT22;24915;50.858;4.376;2023-04-01T17:51:33;10.00;99.90
39189;DHT22;24915;50.858;4.376;2023-04-01T17:54:21;9.90;99.90
39189;DHT22;24915;50.858;4.376;2023-04-01T17:59:52;9.90;99.90
39189;DHT22;24915;50.858;4.376;2023-04-01T18:26:44;9.80;99.90
39189;DHT22;24915;50.858;4.376;2023-04-01T18:29:24;9.80;99.90
39189;DHT22;24915;50.858;4.376;2023-04-01T18:32:00;9.80;99.90
39189;DHT22;24915;50.858;4.376;2023-04-01T18:34:48;9.80;99.90
39189;DHT22;24915;50.858;4.376;2023-04-01T18:37:32;9.80;99.90
39189;DHT22;24915;50.858;4.376;2023-04-01T18:43:29;9.80;99.90
39189;DHT22;24915;50.858;4.376;2023-04-01T18:46:00;9.80;99.90
39189;DHT22;24915;50.858;4.376;2023-04-01T18:51:45;9.80;99.90
39189;DHT22;24915;50.858;4.376;2023-04-01T18:56:43;9.70;99.90
39189;DHT22;24915;50.858;4.376;2023-04-01T19:02:02;9.70;99.90
39189;DHT22;24915;50.858;4.376;2023-04-01T19:04:37;9.70;99.90
39189;DHT22;24915;50.858;4.376;2023-04-01T19:10:31;9.60;99.90
39189;DHT22;24915;50.858;4.376;2023-04-01T19:15:49;9.60;99.90
39189;DHT22;24915;50.858;4.376;2023-04-01T19:24:00;9.60;99.90
39189;DHT22;24915;50.858;4.376;2023-04-01T19:32:19;9.50;99.90
39189;DHT22;24915;50.858;4.376;2023-04-01T19:37:47;9.50;99.90
39189;DHT22;24915;50.858;4.376;2023-04-01T19:48:02;9.50;99.90
39189;DHT22;24915;50.858;4.376;2023-04-01T19:50:53;9.50;99.90
39189;DHT22;24915;50.858;4.376;2023-04-01T19:53:45;9.50;99.90
39189;DHT22;24915;50.858;4.376;2023-04-01T19:56:19;9.50;99.90
39189;DHT22;24915;50.858;4.376;2023-04-01T20:04:04;9.50;99.90
39189;DHT22;24915;50.858;4.376;2023-04-01T20:06:46;9.50;99.90
39189;DHT22;24915;50.858;4.376;2023-04-01T20:09:42;9.50;99.90
39189;DHT22;24915;50.858;4.376;2023-04-01T20:14:46;9.50;99.90
39189;DHT22;24915;50.858;4.376;2023-04-01T20:17:17;9.50;99.90
39189;DHT22;24915;50.858;4.376;2023-04-01T20:19:58;9.50;99.90
39189;DHT22;24915;50.858;4.376;2023-04-01T20:25:15;9.50;99.90
39189;DHT22;24915;50.858;4.376;2023-04-01T20:27:44;9.50;99.90
39189;DHT22;24915;50.858;4.376;2023-04-01T20:36:34;9.50;99.90
39189;DHT22;24915;50.858;4.376;2023-04-01T20:47:35;9.50;99.90
39189;DHT22;24915;50.858;4.376;2023-04-01T20:50:31;9.50;99.90
39189;DHT22;24915;50.858;4.376;2023-04-01T21:02:05;9.60;99.90
39189;DHT22;24915;50.858;4.376;2023-04-01T21:18:49;9.60;99.90
39189;DHT22;24915;50.858;4.376;2023-04-01T21:24:41;9.60;99.90
39189;DHT22;24915;50.858;4.376;2023-04-01T21:36:24;9.60;99.90
39189;DHT22;24915;50.858;4.376;2023-04-01T21:47:42;9.70;99.90
39189;DHT22;24915;50.858;4.376;2023-04-01T21:50:18;9.70;99.90
39189;DHT22;24915;50.858;4.376;2023-04-01T21:56:06;9.70;99.90
39189;DHT22;24915;50.858;4.376;2023-04-01T22:09:35;9.70;99.90
39189;DHT22;24915;50.858;4.376;2023-04-01T22:12:17;9.70;99.90
39189;DHT22;24915;50.858;4.376;2023-04-01T22:17:52;9.70;99.90
39189;DHT22;24915;50.858;4.376;2023-04-01T22:20:25;9.70;99.90
39189;DHT22;24915;50.858;4.376;2023-04-01T22:23:08;9.70;99.90
39189;DHT22;24915;50.858;4.376;2023-04-01T22:28:25;9.70;99.90
39189;DHT22;24915;50.858;4.376;2023-04-01T22:30:59;9.70;99.90
39189;DHT22;24915;50.858;4.376;2023-04-01T22:33:44;9.80;99.90
39189;DHT22;24915;50.858;4.376;2023-04-01T22:36:36;9.70;99.90
39189;DHT22;24915;50.858;4.376;2023-04-01T22:50:40;9.70;99.90
39189;DHT22;24915;50.858;4.376;2023-04-01T22:55:40;9.70;99.90
39189;DHT22;24915;50.858;4.376;2023-04-01T22:58:14;9.70;99.90
39189;DHT22;24915;50.858;4.376;2023-04-01T23:01:04;9.70;99.90
39189;DHT22;24915;50.858;4.376;2023-04-01T23:03:32;9.70;99.90
39189;DHT22;24915;50.858;4.376;2023-04-01T23:06:01;9.70;99.90
39189;DHT22;24915;50.858;4.376;2023-04-01T23:11:06;9.70;99.90
39189;DHT22;24915;50.858;4.376;2023-04-01T23:13:46;9.70;99.90
39189;DHT22;24915;50.858;4.376;2023-04-01T23:16:14;9.70;99.90
39189;DHT22;24915;50.858;4.376;2023-04-01T23:21:40;9.60;99.90
39189;DHT22;24915;50.858;4.376;2023-04-01T23:24:25;9.60;99.90
39189;DHT22;24915;50.858;4.376;2023-04-01T23:26:56;9.60;99.90
39189;DHT22;24915;50.858;4.376;2023-04-01T23:29:24;9.60;99.90
39189;DHT22;24915;50.858;4.376;2023-04-01T23:32:02;9.60;99.90
39189;DHT22;24915;50.858;4.376;2023-04-01T23:34:37;9.50;99.90
39189;DHT22;24915;50.858;4.376;2023-04-01T23:37:07;9.50;99.90
39189;DHT22;24915;50.858;4.376;2023-04-01T23:39:38;9.60;99.90
39189;DHT22;24915;50.858;4.376;2023-04-01T23:44:53;9.60;99.90
39189;DHT22;24915;50.858;4.376;2023-04-01T23:47:39;9.60;99.90
39189;DHT22;24915;50.858;4.376;2023-04-01T23:50:18;9.50;99.90
39189;DHT22;24915;50.858;4.376;2023-04-01T23:52:53;9.60;99.90
39189;DHT22;24915;50.858;4.376;2023-04-01T23:55:27;9.60;99.90
39189;DHT22;24915;50.858;4.376;2023-04-01T23:58:16;9.50;99.90
